Pays
Station

 

Conditions  météo  pour  Kirkenes Lufthavn  -  Norvège    Norvège

  
10 °C
    
 
 

METAR pour Kirkenes Lufthavn :

ENKR 230350Z 18018KT 9999 BKN027 10/06 Q0977 RMK WIND 731FT 18027KT

 

Voici le bulletin pour Kirkenes Lufthavn - Norvège.
 
Le bulletin a été fait il y a 32 minutes, à 03:50 UTC .
Le vent soufflait à la vitesse de 9.3 mètres par seconde de Sud (180°).
 
La température était de 10 °C, avec un point de rosée à 6 °C.
La pression atmosphérique était de 977 hPa.
L'humidité relative était de 76.2%.
 
Il y avait 5 à 7/8ème de nébulosité à une hauteur de 823 mètres.
 
La visibilité globale était de supérieure à 10 kilomètres.
 

 
 
 

Pays :   A   B   C   D   E   F   G   H   I   J   K   L   M   N   O   P   Q   R   S   T   U   V   W   Y   Z

 

Partenaires :  Info Météo avec Met'info
Météo Marine avec MeteoMarine.net
Infos Site  |  Infos Légales  |  Crédits  |  Confidentialité
Contactez-nous  |  Ajouter aux favoris
© 2013-2018 METAR - Tous droits réservés